Time;durP1;ratioP1;P1;durP2;ratioP2;P2;SDS_P1;SDS_P2;PMS_P1;PMS_P2;Temp;Humidity;BMP_temperature;BMP_pressure;BME280_temperature;BME280_humidity;BME280_pressure;Samples;Min_cycle;Max_cycle;Signal;HPM_P1;HPM_P2
2021/04/18 00:01:18;;;;;;;3.10;2.80;;;21.30;40.60;;;;;;4998821;28;20493;-72
2021/04/18 00:03:44;;;;;;;2.38;2.17;;;21.20;40.50;;;;;;5005152;28;20560;-72
2021/04/18 00:06:10;;;;;;;2.30;2.20;;;21.20;40.60;;;;;;5004455;28;20418;-72
2021/04/18 00:08:36;;;;;;;2.75;2.55;;;21.20;40.60;;;;;;4996243;28;20577;-73
2021/04/18 00:11:02;;;;;;;3.30;2.00;;;21.20;40.70;;;;;;5015897;28;20412;-71
2021/04/18 00:13:29;;;;;;;2.30;2.10;;;21.20;40.70;;;;;;5009564;28;20409;-72
2021/04/18 00:15:56;;;;;;;2.40;2.20;;;21.20;40.80;;;;;;5002683;28;20444;-72
2021/04/18 00:18:22;;;;;;;2.40;2.20;;;21.20;40.80;;;;;;5002943;28;20468;-74
2021/04/18 00:20:48;;;;;;;2.22;2.03;;;21.10;40.80;;;;;;5015320;28;20422;-73
2021/04/18 00:23:14;;;;;;;2.40;2.30;;;21.10;40.80;;;;;;5008676;28;21996;-71
2021/04/18 00:25:40;;;;;;;2.70;2.50;;;21.10;40.90;;;;;;5007175;28;20416;-73
2021/04/18 00:28:06;;;;;;;2.47;2.28;;;21.20;41.00;;;;;;5008077;28;20427;-73
2021/04/18 00:30:32;;;;;;;1.90;1.80;;;21.20;40.90;;;;;;5008237;28;20430;-73
2021/04/18 00:32:59;;;;;;;2.00;1.90;;;21.20;40.80;;;;;;4978857;28;20515;-72
2021/04/18 00:35:25;;;;;;;2.05;1.92;;;21.20;40.80;;;;;;5008580;28;20411;-73
2021/04/18 00:37:52;;;;;;;2.30;2.20;;;21.20;40.80;;;;;;5009301;28;20433;-73
2021/04/18 00:40:19;;;;;;;2.00;1.58;;;21.20;40.80;;;;;;5004721;28;20434;-72
2021/04/18 00:42:46;;;;;;;2.42;2.10;;;21.20;40.80;;;;;;5019153;28;20440;-73
2021/04/18 00:45:12;;;;;;;3.03;2.20;;;21.20;40.80;;;;;;5012093;28;20466;-72
2021/04/18 00:47:40;;;;;;;2.45;2.25;;;21.20;40.70;;;;;;5007564;28;20421;-73
2021/04/18 00:50:09;;;;;;;2.28;2.17;;;21.20;41.00;;;;;;5012918;28;20426;-73
2021/04/18 00:52:35;;;;;;;2.50;2.30;;;21.20;41.70;;;;;;4994972;28;20415;-73
2021/04/18 00:55:01;;;;;;;2.10;2.00;;;21.10;40.80;;;;;;5019877;28;20412;-72
2021/04/18 00:57:27;;;;;;;2.30;2.00;;;21.20;41.10;;;;;;5007983;28;20474;-72
2021/04/18 00:59:54;;;;;;;2.22;2.03;;;21.10;41.00;;;;;;5010195;28;20415;-72
2021/04/18 01:02:20;;;;;;;2.50;2.10;;;21.10;41.10;;;;;;5009680;28;20415;-72
2021/04/18 01:04:46;;;;;;;2.95;2.00;;;21.10;41.00;;;;;;5009096;28;20443;-73
2021/04/18 01:07:13;;;;;;;2.40;1.85;;;21.10;41.00;;;;;;5006400;28;20423;-72
2021/04/18 01:09:39;;;;;;;2.08;1.92;;;21.10;40.90;;;;;;5010648;28;20424;-72
2021/04/18 01:12:07;;;;;;;2.00;1.60;;;21.10;40.90;;;;;;5002696;28;20437;-73
2021/04/18 01:14:33;;;;;;;2.20;2.00;;;21.10;41.10;;;;;;5019404;28;20427;-72
2021/04/18 01:16:59;;;;;;;2.00;1.77;;;21.20;41.00;;;;;;5005047;28;20456;-73
2021/04/18 01:19:25;;;;;;;2.60;2.03;;;21.20;41.00;;;;;;4995149;28;20421;-73
2021/04/18 01:21:52;;;;;;;2.10;2.00;;;21.20;41.00;;;;;;5004559;28;20442;-73
2021/04/18 01:24:18;;;;;;;2.20;1.90;;;21.20;40.80;;;;;;5025885;28;20424;-72
2021/04/18 01:26:45;;;;;;;1.90;1.80;;;21.20;40.90;;;;;;5006535;28;20446;-73
2021/04/18 01:29:11;;;;;;;2.03;1.92;;;21.20;40.80;;;;;;5006333;28;20409;-73
2021/04/18 01:31:37;;;;;;;1.70;1.60;;;21.20;40.70;;;;;;4997686;28;20430;-72
2021/04/18 01:34:03;;;;;;;2.60;1.90;;;21.20;40.80;;;;;;4990326;28;20413;-72
2021/04/18 01:36:30;;;;;;;1.70;1.60;;;21.20;40.90;;;;;;5005574;28;20411;-72
2021/04/18 01:38:57;;;;;;;1.70;1.60;;;21.20;40.80;;;;;;5005634;28;20426;-74
2021/04/18 01:41:23;;;;;;;3.27;2.13;;;21.20;41.00;;;;;;5028014;28;20407;-73
2021/04/18 01:43:49;;;;;;;1.70;1.60;;;21.20;41.00;;;;;;5011907;28;20424;-73
2021/04/18 01:46:15;;;;;;;2.20;1.65;;;21.20;41.00;;;;;;5018769;28;20421;-73
2021/04/18 01:48:41;;;;;;;1.60;1.50;;;21.20;41.10;;;;;;4981188;28;20936;-72
2021/04/18 01:51:08;;;;;;;2.88;1.80;;;21.20;40.90;;;;;;5011919;28;20928;-73
2021/04/18 01:53:34;;;;;;;1.70;1.60;;;21.20;41.00;;;;;;4998412;28;20509;-71
2021/04/18 01:56:01;;;;;;;2.00;1.60;;;21.20;41.00;;;;;;4997143;28;21424;-72
2021/04/18 01:58:28;;;;;;;1.77;1.63;;;21.20;40.90;;;;;;4962423;28;20976;-71
2021/04/18 02:00:54;;;;;;;1.92;1.75;;;21.20;40.90;;;;;;5006019;28;20425;-73
2021/04/18 02:03:20;;;;;;;1.58;1.50;;;21.20;41.00;;;;;;4996242;28;20417;-72
2021/04/18 02:05:46;;;;;;;1.70;1.60;;;21.20;41.00;;;;;;4990720;28;20483;-72
2021/04/18 02:08:12;;;;;;;1.88;1.70;;;21.20;41.00;;;;;;4990996;28;20421;-73
2021/04/18 02:10:38;;;;;;;1.63;1.52;;;21.20;41.10;;;;;;5001378;28;20489;-72
2021/04/18 02:13:05;;;;;;;1.60;1.50;;;21.20;41.10;;;;;;4995425;28;21399;-72
2021/04/18 02:15:32;;;;;;;1.50;1.40;;;21.10;41.10;;;;;;5006859;28;20411;-73
2021/04/18 02:17:58;;;;;;;1.60;1.50;;;21.10;41.10;;;;;;4977957;28;20421;-73
2021/04/18 02:20:24;;;;;;;2.35;1.60;;;21.10;41.10;;;;;;5012515;28;20422;-73
2021/04/18 02:22:50;;;;;;;1.47;1.37;;;21.10;41.00;;;;;;4986243;28;20408;-73
2021/04/18 02:25:16;;;;;;;1.60;1.50;;;21.10;41.10;;;;;;5008006;28;21413;-72
2021/04/18 02:27:42;;;;;;;1.30;1.30;;;21.10;41.00;;;;;;4992473;28;20419;-73
2021/04/18 02:30:10;;;;;;;1.42;1.33;;;21.10;41.00;;;;;;5006183;28;20980;-72
2021/04/18 02:32:37;;;;;;;1.77;1.67;;;21.10;41.10;;;;;;4976075;28;20433;-72
2021/04/18 02:35:04;;;;;;;1.67;1.57;;;21.10;41.00;;;;;;5007413;28;20439;-74
2021/04/18 02:37:30;;;;;;;1.60;1.50;;;21.20;41.00;;;;;;4972723;28;20432;-73
2021/04/18 02:39:56;;;;;;;3.15;1.77;;;21.20;40.90;;;;;;4998619;28;20423;-71
2021/04/18 02:42:22;;;;;;;1.90;1.80;;;21.20;40.90;;;;;;4988887;28;20446;-73
2021/04/18 02:44:49;;;;;;;1.85;1.60;;;21.20;40.80;;;;;;5010701;28;20419;-72
2021/04/18 02:47:16;;;;;;;1.50;1.40;;;21.20;40.70;;;;;;4995878;28;20931;-71
2021/04/18 02:49:42;;;;;;;1.63;1.52;;;21.20;40.80;;;;;;5030421;28;20443;-74
2021/04/18 02:52:08;;;;;;;2.40;1.47;;;21.20;40.90;;;;;;5007062;28;20478;-72
2021/04/18 02:54:34;;;;;;;1.60;1.30;;;21.20;41.70;;;;;;5011729;28;20427;-73
2021/04/18 02:57:01;;;;;;;1.90;1.70;;;21.20;41.10;;;;;;4993836;28;20422;-72
2021/04/18 02:59:27;;;;;;;2.75;1.92;;;21.20;41.00;;;;;;4996725;28;20548;-72
2021/04/18 03:01:53;;;;;;;3.72;1.70;;;21.20;40.90;;;;;;5002021;28;20425;-72
2021/04/18 03:04:20;;;;;;;1.50;1.40;;;21.20;40.90;;;;;;5009359;28;20423;-72
2021/04/18 03:06:46;;;;;;;1.50;1.40;;;21.20;41.00;;;;;;5001285;28;20415;-73
2021/04/18 03:09:12;;;;;;;2.05;1.20;;;21.20;40.80;;;;;;5021436;28;20422;-72
2021/04/18 03:11:38;;;;;;;2.03;1.92;;;21.20;40.90;;;;;;5005691;28;20422;-71
2021/04/18 03:14:04;;;;;;;4.00;1.90;;;21.20;40.80;;;;;;4980738;28;20426;-71
2021/04/18 03:16:30;;;;;;;1.80;1.70;;;21.20;40.90;;;;;;5017849;28;20478;-71
2021/04/18 03:18:56;;;;;;;2.20;1.77;;;21.20;40.80;;;;;;4991523;28;20418;-73
2021/04/18 03:21:23;;;;;;;1.77;1.67;;;21.20;41.00;;;;;;5006146;28;20411;-72
2021/04/18 03:23:50;;;;;;;1.90;1.67;;;21.20;41.00;;;;;;5006469;28;20407;-72
2021/04/18 03:26:16;;;;;;;1.90;1.80;;;21.10;40.70;;;;;;4999930;28;20417;-72
2021/04/18 03:28:42;;;;;;;1.38;1.27;;;21.10;41.00;;;;;;4989627;28;20427;-72
2021/04/18 03:31:08;;;;;;;1.60;1.50;;;21.10;41.00;;;;;;4995987;28;20434;-73
2021/04/18 03:33:34;;;;;;;2.80;1.65;;;21.10;40.90;;;;;;5001950;28;20437;-71
2021/04/18 03:36:01;;;;;;;1.70;1.38;;;21.10;41.00;;;;;;5003299;28;20456;-71
2021/04/18 03:38:28;;;;;;;1.60;1.50;;;21.10;41.00;;;;;;5001537;28;20417;-70
2021/04/18 03:40:54;;;;;;;1.60;1.50;;;21.10;41.00;;;;;;5016850;28;20423;-71
2021/04/18 03:43:20;;;;;;;1.80;1.70;;;21.10;41.00;;;;;;4997971;28;20422;-72
2021/04/18 03:45:46;;;;;;;1.98;1.42;;;21.10;40.80;;;;;;5007661;28;20424;-73
2021/04/18 03:48:12;;;;;;;2.00;1.35;;;21.10;40.90;;;;;;5002408;28;20820;-72
2021/04/18 03:50:38;;;;;;;2.00;1.20;;;21.10;41.00;;;;;;5005776;28;20569;-71
2021/04/18 03:53:04;;;;;;;2.70;1.70;;;21.10;40.90;;;;;;5007405;28;20430;-71
2021/04/18 03:55:32;;;;;;;1.70;1.30;;;21.10;41.70;;;;;;5009672;28;20425;-72
2021/04/18 03:57:58;;;;;;;1.70;1.60;;;21.10;40.90;;;;;;5009175;28;20427;-71
2021/04/18 04:00:24;;;;;;;1.52;1.42;;;21.10;41.00;;;;;;5009765;28;20910;-72
2021/04/18 04:02:50;;;;;;;1.30;1.30;;;21.10;40.70;;;;;;5008696;28;20834;-71
2021/04/18 04:05:16;;;;;;;1.80;1.70;;;21.10;40.80;;;;;;5003214;28;20939;-72
2021/04/18 04:07:42;;;;;;;1.25;1.10;;;21.10;40.70;;;;;;5008920;28;20409;-72
2021/04/18 04:10:09;;;;;;;2.20;1.20;;;21.10;40.80;;;;;;5009256;28;20435;-72
2021/04/18 04:12:36;;;;;;;1.48;1.38;;;21.20;40.70;;;;;;5009087;28;20428;-72
2021/04/18 04:15:03;;;;;;;2.10;1.50;;;21.20;40.80;;;;;;5010561;28;20477;-71
2021/04/18 04:17:29;;;;;;;1.50;1.40;;;21.20;40.60;;;;;;5005463;28;20419;-71
2021/04/18 04:19:55;;;;;;;1.90;1.70;;;21.20;40.60;;;;;;4979213;28;20424;-72
2021/04/18 04:22:21;;;;;;;1.20;1.10;;;21.20;40.40;;;;;;5012578;28;20459;-71
2021/04/18 04:24:47;;;;;;;1.50;1.40;;;21.20;40.70;;;;;;4998915;28;20805;-71
2021/04/18 04:27:14;;;;;;;1.60;1.10;;;21.20;40.60;;;;;;4998562;28;20429;-71
2021/04/18 04:29:41;;;;;;;1.60;1.50;;;21.20;40.70;;;;;;4994369;28;20907;-71
2021/04/18 04:32:07;;;;;;;1.40;1.30;;;21.10;40.70;;;;;;4998454;28;20433;-72
2021/04/18 04:34:33;;;;;;;1.20;1.10;;;21.10;40.70;;;;;;5006026;28;20537;-72
2021/04/18 04:37:00;;;;;;;1.60;1.30;;;21.10;40.80;;;;;;4998475;28;20426;-71
2021/04/18 04:39:26;;;;;;;1.50;1.40;;;21.10;40.70;;;;;;5008551;28;20418;-71
2021/04/18 04:41:52;;;;;;;1.20;1.20;;;21.10;40.80;;;;;;5007020;28;20426;-72
2021/04/18 04:44:18;;;;;;;1.60;1.40;;;21.10;41.70;;;;;;5009915;28;21469;-71
2021/04/18 04:46:45;;;;;;;1.40;1.27;;;21.10;40.90;;;;;;4999257;28;20431;-71
2021/04/18 04:49:11;;;;;;;1.50;1.40;;;21.10;40.80;;;;;;5007937;28;20449;-72
2021/04/18 04:51:38;;;;;;;1.40;1.30;;;21.10;40.80;;;;;;5018628;28;21281;-71
2021/04/18 04:54:04;;;;;;;1.42;1.33;;;21.00;40.70;;;;;;5006992;28;20489;-72
2021/04/18 04:56:31;;;;;;;1.40;1.30;;;21.00;40.70;;;;;;5007967;28;20971;-73
2021/04/18 04:58:57;;;;;;;1.30;1.20;;;21.00;40.80;;;;;;4999179;28;20437;-73
2021/04/18 05:01:23;;;;;;;1.98;1.45;;;21.00;40.80;;;;;;5015871;28;20423;-72
2021/04/18 05:03:51;;;;;;;1.40;1.00;;;21.00;40.70;;;;;;5007834;28;21226;-71
2021/04/18 05:06:17;;;;;;;1.60;1.30;;;21.10;40.70;;;;;;5008191;28;20421;-72
2021/04/18 05:08:43;;;;;;;1.52;1.40;;;21.10;40.80;;;;;;5008727;28;20413;-73
2021/04/18 05:11:09;;;;;;;1.00;1.00;;;21.00;40.60;;;;;;5007338;28;21447;-73
2021/04/18 05:13:35;;;;;;;1.30;1.20;;;21.10;40.70;;;;;;4998069;28;20417;-72
2021/04/18 05:16:02;;;;;;;1.20;1.20;;;21.10;40.80;;;;;;5006224;28;20421;-74
2021/04/18 05:18:28;;;;;;;1.35;1.20;;;21.10;40.60;;;;;;4998228;28;20422;-72
2021/04/18 05:20:55;;;;;;;2.40;1.70;;;21.10;40.50;;;;;;5007612;28;20423;-73
2021/04/18 05:23:21;;;;;;;3.08;1.70;;;21.10;40.60;;;;;;5010796;28;20407;-72
2021/04/18 05:25:47;;;;;;;1.20;1.10;;;21.10;40.70;;;;;;5000664;28;20999;-72
2021/04/18 05:28:13;;;;;;;1.65;1.42;;;21.20;40.70;;;;;;5004851;28;20746;-71
2021/04/18 05:30:40;;;;;;;1.20;1.20;;;21.20;41.30;;;;;;5008080;28;20978;-72
2021/04/18 05:33:06;;;;;;;2.22;1.20;;;21.30;40.30;;;;;;5006958;28;20464;-71
2021/04/18 05:35:33;;;;;;;1.90;1.40;;;21.30;40.10;;;;;;5007945;28;20416;-71
2021/04/18 05:38:00;;;;;;;2.50;1.20;;;21.40;40.10;;;;;;5006162;28;20419;-72
2021/04/18 05:40:26;;;;;;;2.45;1.48;;;21.50;40.10;;;;;;5004606;28;20485;-72
2021/04/18 05:42:52;;;;;;;1.33;1.23;;;21.50;39.90;;;;;;5002216;28;21360;-71
2021/04/18 05:45:19;;;;;;;1.30;1.20;;;21.50;40.00;;;;;;5002554;28;20427;-72
2021/04/18 05:47:45;;;;;;;1.10;1.10;;;21.50;40.90;;;;;;4976841;28;20927;-71
2021/04/18 05:50:12;;;;;;;2.33;1.30;;;21.50;40.10;;;;;;4990367;28;20421;-72
2021/04/18 05:52:39;;;;;;;2.65;1.45;;;21.40;40.00;;;;;;5005025;28;20978;-74
2021/04/18 05:55:07;;;;;;;2.85;1.55;;;21.40;40.10;;;;;;4978029;28;20415;-71
2021/04/18 05:57:34;;;;;;;1.40;1.30;;;21.30;40.10;;;;;;4994697;28;20415;-71
2021/04/18 06:00:00;;;;;;;1.90;1.20;;;21.30;40.20;;;;;;4993190;28;20421;-71
2021/04/18 06:02:26;;;;;;;1.38;1.27;;;21.20;40.40;;;;;;5001609;28;20411;-72
2021/04/18 06:04:52;;;;;;;1.10;1.10;;;21.20;40.40;;;;;;5006429;28;20426;-71
2021/04/18 06:07:18;;;;;;;1.63;1.30;;;21.20;40.40;;;;;;5009843;28;20431;-70
2021/04/18 06:09:44;;;;;;;1.42;1.30;;;21.20;40.40;;;;;;5005459;28;20479;-71
2021/04/18 06:12:12;;;;;;;2.47;1.20;;;21.20;40.50;;;;;;5004838;28;20440;-71
2021/04/18 06:14:38;;;;;;;2.60;1.10;;;21.20;40.40;;;;;;5007108;28;20416;-71
2021/04/18 06:17:04;;;;;;;2.13;1.30;;;21.30;40.50;;;;;;5003029;28;20433;-72
2021/04/18 06:19:30;;;;;;;1.30;1.20;;;21.30;40.30;;;;;;4997626;28;21028;-72
2021/04/18 06:21:56;;;;;;;1.80;1.20;;;21.40;40.30;;;;;;5006566;28;20915;-72
2021/04/18 06:24:23;;;;;;;1.80;1.38;;;21.40;40.10;;;;;;5004039;28;21038;-72
2021/04/18 06:26:49;;;;;;;1.42;1.33;;;21.50;40.10;;;;;;5007834;28;20420;-72
2021/04/18 06:29:16;;;;;;;2.90;1.17;;;21.50;40.00;;;;;;5007022;28;20920;-72
2021/04/18 06:31:43;;;;;;;1.95;1.20;;;21.50;40.00;;;;;;5003683;28;20416;-71
2021/04/18 06:34:09;;;;;;;1.20;1.10;;;21.50;40.00;;;;;;5007039;28;20409;-73
2021/04/18 06:36:35;;;;;;;1.48;1.20;;;21.50;39.90;;;;;;5006107;28;20583;-72
2021/04/18 06:39:02;;;;;;;2.70;1.20;;;21.50;39.90;;;;;;5005117;28;20940;-72
2021/04/18 06:41:28;;;;;;;1.38;1.27;;;21.50;40.00;;;;;;5005970;28;21111;-72
2021/04/18 06:43:54;;;;;;;1.40;1.30;;;21.50;40.00;;;;;;5005909;28;20466;-73
2021/04/18 06:46:21;;;;;;;1.20;1.10;;;21.40;40.10;;;;;;5000819;28;20461;-72
2021/04/18 06:48:48;;;;;;;2.20;1.03;;;21.40;40.20;;;;;;5011797;28;20419;-72
2021/04/18 06:51:15;;;;;;;1.30;1.20;;;21.40;40.30;;;;;;5005653;28;20421;-71
2021/04/18 06:53:41;;;;;;;2.70;1.20;;;21.30;40.20;;;;;;4989572;28;20409;-71
2021/04/18 06:56:08;;;;;;;1.85;1.30;;;21.30;40.30;;;;;;5012752;28;20417;-72
2021/04/18 06:58:34;;;;;;;1.17;1.08;;;21.30;40.40;;;;;;4993505;28;20580;-71
2021/04/18 07:01:00;;;;;;;1.40;1.20;;;21.40;40.40;;;;;;5003064;28;20431;-73
2021/04/18 07:03:27;;;;;;;1.70;1.02;;;21.40;40.40;;;;;;5015041;28;21463;-73
2021/04/18 07:05:56;;;;;;;1.83;1.20;;;21.40;40.40;;;;;;5006562;28;20419;-73
2021/04/18 07:08:24;;;;;;;1.40;1.20;;;21.40;40.20;;;;;;5004049;28;20432;-71
2021/04/18 07:10:50;;;;;;;1.52;1.13;;;21.40;40.40;;;;;;4996786;28;20491;-73
2021/04/18 07:13:17;;;;;;;1.00;1.00;;;21.40;40.40;;;;;;5021041;28;20820;-72
2021/04/18 07:15:44;;;;;;;1.27;1.17;;;21.50;40.40;;;;;;5007300;28;20413;-73
2021/04/18 07:18:13;;;;;;;1.70;1.30;;;21.40;40.30;;;;;;5004070;28;20416;-73
2021/04/18 07:20:52;;;;;;;1.20;1.00;;;21.50;40.20;;;;;;5007992;28;20426;-73
2021/04/18 07:23:25;;;;;;;1.30;1.20;;;21.50;40.30;;;;;;4997858;28;20477;-73
2021/04/18 07:25:51;;;;;;;1.48;1.10;;;21.50;40.20;;;;;;4992294;28;20443;-73
2021/04/18 07:28:24;;;;;;;1.30;0.90;;;21.50;40.30;;;;;;5003649;28;20420;-73
2021/04/18 07:30:50;;;;;;;1.92;1.08;;;21.50;40.20;;;;;;4973962;28;20946;-73
2021/04/18 07:33:16;;;;;;;2.85;1.30;;;21.50;40.20;;;;;;5007282;28;20411;-73
2021/04/18 07:35:44;;;;;;;1.17;1.17;;;21.60;40.40;;;;;;5007011;28;20850;-73
2021/04/18 07:38:18;;;;;;;1.00;1.00;;;21.50;40.20;;;;;;5013491;28;20417;-73
2021/04/18 07:40:45;;;;;;;1.50;1.20;;;21.50;40.20;;;;;;5005060;28;20471;-73
2021/04/18 07:43:11;;;;;;;1.30;1.20;;;21.50;40.30;;;;;;5005103;28;20421;-72
2021/04/18 07:45:38;;;;;;;1.30;1.20;;;21.50;40.30;;;;;;4995377;28;20978;-72
2021/04/18 07:48:05;;;;;;;1.20;1.10;;;21.50;40.50;;;;;;5002789;28;20453;-73
2021/04/18 07:50:31;;;;;;;1.80;1.50;;;21.40;40.50;;;;;;5004335;28;20428;-72
2021/04/18 07:52:57;;;;;;;2.15;1.10;;;21.40;40.60;;;;;;5003834;28;20473;-72
2021/04/18 07:55:24;;;;;;;2.15;1.10;;;21.40;40.60;;;;;;5005567;28;20454;-73
2021/04/18 07:57:51;;;;;;;1.10;1.10;;;21.30;40.80;;;;;;5005749;28;20428;-72
2021/04/18 08:00:18;;;;;;;0.95;0.85;;;21.30;40.90;;;;;;5000857;28;20417;-72
2021/04/18 08:02:47;;;;;;;1.88;0.90;;;21.30;40.80;;;;;;5004767;28;20419;-73
2021/04/18 08:05:14;;;;;;;2.03;1.30;;;21.30;40.80;;;;;;5003884;28;21044;-73
2021/04/18 08:07:58;;;;;;;1.08;0.95;;;21.30;40.70;;;;;;5004193;28;20425;-72
2021/04/18 08:10:26;;;;;;;1.10;1.00;;;21.30;40.80;;;;;;5003627;28;20621;-72
2021/04/18 08:13:17;;;;;;;1.20;1.10;;;21.40;40.90;;;;;;5002995;28;20433;-73
2021/04/18 08:15:55;;;;;;;1.48;1.10;;;21.40;40.80;;;;;;4981681;28;20894;-72
2021/04/18 08:18:27;;;;;;;1.50;1.00;;;21.40;40.70;;;;;;4985815;28;21095;-73
2021/04/18 08:20:53;;;;;;;2.60;1.25;;;21.50;40.70;;;;;;5002148;28;20505;-73
2021/04/18 08:23:21;;;;;;;1.10;1.00;;;21.50;40.60;;;;;;5009110;28;21795;-73
2021/04/18 08:26:09;;;;;;;2.20;1.00;;;21.50;40.70;;;;;;5003804;28;20428;-73
2021/04/18 08:29:04;;;;;;;1.30;1.10;;;21.50;40.60;;;;;;4986034;28;20416;-73
2021/04/18 08:31:31;;;;;;;2.10;1.10;;;21.50;40.60;;;;;;5002082;28;20415;-72
2021/04/18 08:33:58;;;;;;;1.20;1.00;;;21.60;40.60;;;;;;5007912;28;20413;-72
2021/04/18 08:36:24;;;;;;;1.40;1.30;;;21.60;40.70;;;;;;5002149;28;20506;-72
2021/04/18 08:39:13;;;;;;;1.30;1.00;;;21.60;40.70;;;;;;5002375;28;20483;-72
2021/04/18 08:41:40;;;;;;;1.43;1.10;;;21.50;40.80;;;;;;5005105;28;20433;-72
2021/04/18 08:44:13;;;;;;;1.52;1.20;;;21.50;40.80;;;;;;5008850;28;20928;-73
2021/04/18 08:46:39;;;;;;;1.70;1.30;;;21.50;40.80;;;;;;5001640;28;22393;-73
2021/04/18 08:49:05;;;;;;;1.10;1.10;;;21.50;40.90;;;;;;5005539;28;20424;-72
2021/04/18 08:51:32;;;;;;;1.90;1.30;;;21.50;40.90;;;;;;5009851;28;20405;-72
2021/04/18 08:53:59;;;;;;;2.40;1.10;;;21.50;40.90;;;;;;5006475;28;20410;-73
2021/04/18 08:56:44;;;;;;;1.30;1.20;;;21.40;40.90;;;;;;5004995;28;20446;-73
2021/04/18 08:59:10;;;;;;;1.02;0.93;;;21.40;41.00;;;;;;4998837;28;20467;-73
2021/04/18 09:01:37;;;;;;;1.27;1.17;;;21.40;41.00;;;;;;4998889;28;20415;-72
2021/04/18 09:04:04;;;;;;;1.40;1.20;;;21.40;41.00;;;;;;5013692;28;20437;-73
2021/04/18 09:06:32;;;;;;;1.30;1.20;;;21.40;41.10;;;;;;5007958;28;20463;-72
2021/04/18 09:08:58;;;;;;;1.48;1.10;;;21.40;41.20;;;;;;5007951;28;20796;-72
2021/04/18 09:11:24;;;;;;;1.00;1.00;;;21.40;41.20;;;;;;5002614;28;20427;-73
2021/04/18 09:13:58;;;;;;;1.15;1.05;;;21.40;41.10;;;;;;5008441;28;20861;-72
2021/04/18 09:16:25;;;;;;;1.30;1.20;;;21.50;41.10;;;;;;5006833;28;20417;-73
2021/04/18 09:18:52;;;;;;;3.17;1.25;;;21.50;41.10;;;;;;5009486;28;20491;-73
2021/04/18 09:21:18;;;;;;;1.20;1.10;;;21.50;41.10;;;;;;5002220;28;20876;-72
2021/04/18 09:23:57;;;;;;;1.35;1.23;;;21.50;41.10;;;;;;5007329;28;20413;-73
2021/04/18 09:26:24;;;;;;;1.40;1.30;;;21.50;41.10;;;;;;5002678;28;20426;-73
2021/04/18 09:29:07;;;;;;;1.40;1.30;;;21.50;41.10;;;;;;5006098;28;21014;-73
2021/04/18 09:31:33;;;;;;;2.15;1.40;;;21.50;41.10;;;;;;5004181;28;20546;-73
2021/04/18 09:34:04;;;;;;;2.20;1.40;;;21.50;41.10;;;;;;5005605;28;20447;-73
2021/04/18 09:36:30;;;;;;;1.23;1.10;;;21.50;41.20;;;;;;5005742;28;20411;-73
2021/04/18 09:38:56;;;;;;;1.60;1.10;;;21.40;41.30;;;;;;4991897;28;20419;-72
2021/04/18 09:41:22;;;;;;;2.10;1.38;;;21.40;41.40;;;;;;4979042;28;20415;-73
2021/04/18 09:43:55;;;;;;;1.80;1.10;;;21.40;41.40;;;;;;5003389;28;20417;-72
2021/04/18 09:46:22;;;;;;;1.35;1.25;;;21.40;41.40;;;;;;4996410;28;20444;-72
2021/04/18 09:48:58;;;;;;;1.10;1.10;;;21.40;41.40;;;;;;5008487;28;22101;-73
2021/04/18 09:51:24;;;;;;;1.15;1.15;;;21.40;41.50;;;;;;5030524;28;20427;-73
2021/04/18 09:54:01;;;;;;;1.10;1.00;;;21.40;41.40;;;;;;5024891;28;20409;-73
2021/04/18 09:56:27;;;;;;;1.60;1.50;;;21.40;41.50;;;;;;5030778;28;20401;-74
2021/04/18 09:58:53;;;;;;;1.50;1.40;;;21.30;41.50;;;;;;5001109;28;20436;-72
2021/04/18 10:01:24;;;;;;;2.08;1.30;;;21.30;41.60;;;;;;4999543;28;20482;-72
2021/04/18 10:03:50;;;;;;;1.33;1.23;;;21.30;41.80;;;;;;4987025;28;20412;-72
2021/04/18 10:06:16;;;;;;;1.50;1.38;;;21.30;41.70;;;;;;4998225;28;20424;-73
2021/04/18 10:08:45;;;;;;;2.00;1.50;;;21.30;41.70;;;;;;4989980;28;20411;-72
2021/04/18 10:11:18;;;;;;;1.40;1.30;;;21.40;41.60;;;;;;4996784;28;21863;-72
2021/04/18 10:13:48;;;;;;;1.17;1.08;;;21.40;41.60;;;;;;4989488;28;20797;-73
2021/04/18 10:16:14;;;;;;;1.90;1.00;;;21.50;41.70;;;;;;4997830;28;20516;-72
2021/04/18 10:18:42;;;;;;;2.10;1.20;;;21.50;41.60;;;;;;4994929;28;20415;-72
2021/04/18 10:21:14;;;;;;;1.50;1.20;;;21.50;41.60;;;;;;5000154;28;20450;-72
2021/04/18 10:23:40;;;;;;;2.20;1.10;;;21.50;41.60;;;;;;5009733;28;21661;-73
2021/04/18 10:26:06;;;;;;;2.63;1.40;;;21.50;41.50;;;;;;5004584;28;20412;-73
2021/04/18 10:28:32;;;;;;;2.30;1.40;;;21.50;41.50;;;;;;5012839;28;20427;-72
2021/04/18 10:30:58;;;;;;;2.20;1.30;;;21.50;41.40;;;;;;5004554;28;20431;-73
2021/04/18 10:33:24;;;;;;;1.52;1.42;;;21.50;41.50;;;;;;5006158;28;20415;-73
2021/04/18 10:35:54;;;;;;;1.95;1.00;;;21.50;41.50;;;;;;5005730;28;20428;-72
2021/04/18 10:38:20;;;;;;;1.20;1.10;;;21.50;41.50;;;;;;5005597;28;20474;-73
2021/04/18 10:40:46;;;;;;;1.45;1.20;;;21.50;41.60;;;;;;5007599;28;20431;-73
2021/04/18 10:43:12;;;;;;;1.50;1.40;;;21.50;41.60;;;;;;5006224;28;20437;-73
2021/04/18 10:45:39;;;;;;;1.45;1.35;;;21.50;41.60;;;;;;5017312;28;20421;-75
2021/04/18 10:48:06;;;;;;;1.90;1.25;;;21.40;41.60;;;;;;5027923;28;20432;-72
2021/04/18 10:50:32;;;;;;;1.50;1.40;;;21.40;41.70;;;;;;5027088;28;20400;-73
2021/04/18 10:52:59;;;;;;;1.60;1.50;;;21.30;41.70;;;;;;5010883;28;20434;-72
2021/04/18 10:55:25;;;;;;;5.00;1.50;;;21.30;41.80;;;;;;4998454;28;20439;-72
2021/04/18 10:57:51;;;;;;;1.30;1.20;;;21.30;41.90;;;;;;5005085;28;20516;-73
2021/04/18 11:00:19;;;;;;;1.20;1.20;;;21.30;41.90;;;;;;4984371;28;20427;-72
2021/04/18 11:02:45;;;;;;;1.40;1.30;;;21.40;42.00;;;;;;4995819;28;20968;-73
2021/04/18 11:05:12;;;;;;;1.25;1.25;;;21.40;41.90;;;;;;4996435;28;20601;-73
2021/04/18 11:07:39;;;;;;;1.40;1.30;;;21.50;41.80;;;;;;4995554;28;20413;-72
2021/04/18 11:10:07;;;;;;;1.30;1.20;;;21.50;41.70;;;;;;4989011;28;20486;-72
2021/04/18 11:12:33;;;;;;;1.90;1.50;;;21.50;41.60;;;;;;4996472;28;20420;-73
2021/04/18 11:14:59;;;;;;;1.75;1.65;;;21.60;41.60;;;;;;4999992;28;20416;-72
2021/04/18 11:17:25;;;;;;;1.45;1.20;;;21.60;41.50;;;;;;5006924;28;20417;-73
2021/04/18 11:19:52;;;;;;;1.95;1.10;;;21.60;41.50;;;;;;5009551;28;20421;-73
2021/04/18 11:22:21;;;;;;;1.20;1.10;;;21.60;41.50;;;;;;4972731;28;20862;-72
2021/04/18 11:24:47;;;;;;;1.20;1.10;;;21.60;41.50;;;;;;4996507;28;21605;-73
2021/04/18 11:27:14;;;;;;;2.10;1.10;;;21.60;41.50;;;;;;5008671;28;20424;-73
2021/04/18 11:29:42;;;;;;;1.40;1.30;;;21.60;41.60;;;;;;4998410;28;20474;-71
2021/04/18 11:32:08;;;;;;;1.40;1.30;;;21.60;41.60;;;;;;4982080;28;20437;-71
2021/04/18 11:34:34;;;;;;;1.92;1.73;;;21.60;41.60;;;;;;5004782;28;20457;-73
2021/04/18 11:37:00;;;;;;;2.45;1.30;;;21.50;41.50;;;;;;4989628;28;20417;-73
2021/04/18 11:39:27;;;;;;;1.40;1.30;;;21.50;41.80;;;;;;5006289;28;20899;-72
2021/04/18 11:41:53;;;;;;;2.03;1.30;;;21.50;41.80;;;;;;4995531;28;20465;-73
2021/04/18 11:44:20;;;;;;;1.20;1.10;;;21.40;41.70;;;;;;4996170;28;20852;-72
2021/04/18 11:46:46;;;;;;;1.30;1.20;;;21.40;42.00;;;;;;5004173;28;20493;-73
2021/04/18 11:49:14;;;;;;;1.50;1.40;;;21.30;41.90;;;;;;5004309;28;20425;-73
2021/04/18 11:51:40;;;;;;;1.15;1.15;;;21.30;42.00;;;;;;5004721;28;20528;-73
2021/04/18 11:54:06;;;;;;;2.60;1.35;;;21.30;42.10;;;;;;4995955;28;20446;-72
2021/04/18 11:56:32;;;;;;;1.60;1.50;;;21.30;42.10;;;;;;5005545;28;20420;-72
2021/04/18 11:58:59;;;;;;;1.70;1.35;;;21.30;42.20;;;;;;4996399;28;20428;-73
2021/04/18 12:01:26;;;;;;;1.13;1.13;;;21.30;42.20;;;;;;5013254;28;20495;-72
2021/04/18 12:03:52;;;;;;;2.50;1.40;;;21.30;42.30;;;;;;5009007;28;20912;-72
2021/04/18 12:06:18;;;;;;;1.92;1.40;;;21.30;42.20;;;;;;5006652;28;20428;-72
2021/04/18 12:08:44;;;;;;;1.60;1.50;;;21.40;42.20;;;;;;5004746;28;20416;-71
2021/04/18 12:11:11;;;;;;;2.80;1.20;;;21.40;42.00;;;;;;5005183;28;20408;-72
2021/04/18 12:13:37;;;;;;;1.30;1.20;;;21.40;42.00;;;;;;5005136;28;20791;-71
2021/04/18 12:16:03;;;;;;;1.40;1.25;;;21.40;42.00;;;;;;5010099;28;21005;-73
2021/04/18 12:18:30;;;;;;;1.40;1.30;;;21.50;41.90;;;;;;5006914;28;21038;-73
2021/04/18 12:20:57;;;;;;;1.58;1.48;;;21.50;41.90;;;;;;4993108;28;20429;-72
2021/04/18 12:23:23;;;;;;;1.35;1.25;;;21.50;42.00;;;;;;4987965;28;20422;-73
2021/04/18 12:25:49;;;;;;;1.40;1.30;;;21.50;42.00;;;;;;4964109;28;20476;-73
2021/04/18 12:28:15;;;;;;;1.70;1.60;;;21.40;42.00;;;;;;5000995;28;20421;-71
2021/04/18 12:30:41;;;;;;;1.30;1.20;;;21.40;42.00;;;;;;5005157;28;20443;-72
2021/04/18 12:33:07;;;;;;;1.50;1.40;;;21.40;42.20;;;;;;5019300;28;21176;-72
2021/04/18 12:35:34;;;;;;;1.77;1.67;;;21.30;42.20;;;;;;5009068;28;20419;-71
2021/04/18 12:38:00;;;;;;;1.48;1.35;;;21.30;42.30;;;;;;5008457;28;20411;-72
2021/04/18 12:40:26;;;;;;;1.60;1.50;;;21.30;42.40;;;;;;5000438;28;20418;-72
2021/04/18 12:42:53;;;;;;;2.88;1.40;;;21.30;43.20;;;;;;5020167;28;20986;-73
2021/04/18 12:45:19;;;;;;;1.67;1.33;;;21.30;42.40;;;;;;5009346;28;20897;-72
2021/04/18 12:47:46;;;;;;;1.40;1.30;;;21.30;42.40;;;;;;5006912;28;20488;-72